Le Roy, KS (66857)

1:38 AM CDT on September 02, 2015 (GMT -0500)
Gridley Fire Station | | Change Station
CLOSE
Current Station
Personal Weather Station
Location: Gridley, KS
Elevation: 1161 ft
Nearby Weather Stations

Elev 1161 ft 38.10 °N, 95.89 °W | Updated 13 minutes ago

Clear
Clear
75.8 °F
Feels Like 77 °F
N
2.0
Wind Variable Wind from SSE
Gusts 8.0 mph

Today
High -- | Low -- °F
--% Chance of Precip.
Yesterday
High -- | Low -- °F
Precip. -- in
6:52 AM 7:50 PM
Waning Gibbous, 83% visible
Pressure 29.99 in
Visibility 9.0 miles
Clouds Clear
Heat Index 77 °F
Dew Point 68 °F
Humidity 78%
Rainfall 0.00 in
Snow Depth Not available.
UV 0 out of 12
Pollen 11.20 out of 12
Air Quality Not available.
Flu Activity Not available.
METAR KCNU 020552Z AUTO 15006KT 9SM CLR 22/20 A3003 RMK AO2 SLP156 T02220200 10289 20222 403110200 58002
Pressure 29.99 in
Visibility 9.0 miles
Clouds Clear
Heat Index 77 °F
Dew Point 68 °F
Humidity 78%
Rainfall 0.00 in
Snow Depth Not available.
UV 0 out of 12
Pollen 11.20 out of 12
Air Quality Not available.
Flu Activity Not available.
METAR KCNU 020552Z AUTO 15006KT 9SM CLR 22/20 A3003 RMK AO2 SLP156 T02220200 10289 20222 403110200 58002

10-Day Weather Forecast

×

Almanac

Astronomy

Sep. 02, 2015 Rise Set
Actual Time
Civil Twilight
Nautical Twilight
Astronomical Twilight
Moon
Length of Visible Light
Length of Day
Tomorrow will be .
, % of the Moon is Illuminated

Today's Extremes

State Highs State Lows

Community

WunderPhotos

Upload Photos

1,851,709 photos uploaded!

WunderBlogs® & News

Nearby

Air Quality

  Air Quality AQ Index Pollutant
Not available.

Snow Depth

Station Depth Elevation

Earthquake Activity

City Distance Mag. Time & Date
Minimum magnitude displayed is 2.5.

Coastal Water Temperatures

Place Temperature

Stations

Nearby Weather Stations

Station Location Temp. Windchill Dew Point Humidity Wind Precip. Elev Updated Type